createdAt,value
2022-10-16T00:00:00.717Z,99013.77
2022-10-16T00:03:19.064Z,99015.35
2022-10-16T00:06:37.587Z,99012.69
2022-10-16T00:09:56.790Z,99018.02
2022-10-16T00:13:11.912Z,99013.91
2022-10-16T00:16:28.024Z,99022.13
2022-10-16T00:19:44.007Z,99018.86
2022-10-16T00:23:01.559Z,99022.73
2022-10-16T00:26:20.989Z,99028.30
2022-10-16T00:29:37.193Z,99031.41
2022-10-16T00:32:55.082Z,99030.56
2022-10-16T00:36:14.450Z,99034.64
2022-10-16T00:39:28.168Z,99038.31
2022-10-16T00:42:44.016Z,99036.05
2022-10-16T00:46:00.185Z,99047.91
2022-10-16T00:49:19.851Z,99049.08
2022-10-16T00:52:36.034Z,99056.26
2022-10-16T00:55:52.263Z,99056.21
2022-10-16T00:59:11.826Z,99055.77
2022-10-16T01:02:28.479Z,99057.34
2022-10-16T01:05:51.865Z,99059.38
2022-10-16T01:09:18.282Z,99054.48
2022-10-16T01:12:47.060Z,99046.33
2022-10-16T01:16:08.245Z,99050.80
2022-10-16T01:19:30.361Z,99042.82
2022-10-16T01:22:54.578Z,99048.98
2022-10-16T01:26:47.613Z,99048.03
2022-10-16T01:30:11.548Z,99051.25
2022-10-16T01:33:31.195Z,99053.91
2022-10-16T01:36:52.409Z,99058.34
2022-10-16T01:40:14.556Z,99052.21
2022-10-16T01:43:33.821Z,99061.09
2022-10-16T01:46:50.059Z,99059.05
2022-10-16T01:50:09.499Z,99070.53
2022-10-16T01:53:27.909Z,99065.58
2022-10-16T01:56:46.539Z,99065.13
2022-10-16T02:00:06.893Z,99070.03
2022-10-16T02:03:28.121Z,99071.85
2022-10-16T02:06:45.429Z,99078.02
2022-10-16T02:10:02.265Z,99073.51
2022-10-16T02:13:23.185Z,99072.50
2022-10-16T02:16:46.660Z,99080.03
2022-10-16T02:20:06.876Z,99078.38
2022-10-16T02:23:27.530Z,99081.49
2022-10-16T02:26:47.727Z,99079.03
2022-10-16T02:30:09.750Z,99076.56
2022-10-16T02:33:28.548Z,99065.91
2022-10-16T02:36:46.466Z,99076.36
2022-10-16T02:40:04.455Z,99080.29
2022-10-16T02:43:21.469Z,99074.77
2022-10-16T02:46:37.535Z,99070.90
2022-10-16T02:49:54.252Z,99079.16
2022-10-16T02:53:10.469Z,99073.39
2022-10-16T02:56:26.883Z,99066.33
2022-10-16T02:59:45.207Z,99072.05
2022-10-16T03:03:01.863Z,99073.06
2022-10-16T03:06:17.778Z,99079.59
2022-10-16T03:09:33.784Z,99082.64
2022-10-16T03:12:49.787Z,99081.55
2022-10-16T03:16:05.880Z,99082.30
2022-10-16T03:19:22.385Z,99082.03
2022-10-16T03:22:38.465Z,99080.19
2022-10-16T03:25:54.486Z,99072.41
2022-10-16T03:29:10.821Z,99072.20
2022-10-16T03:32:31.193Z,99079.13
2022-10-16T03:35:47.281Z,99091.97
2022-10-16T03:39:03.307Z,99096.19
2022-10-16T03:42:19.620Z,99098.39
2022-10-16T03:45:35.936Z,99103.84
2022-10-16T03:48:52.023Z,99110.09
2022-10-16T03:52:08.542Z,99110.44
2022-10-16T03:55:25.337Z,99112.83
2022-10-16T03:58:42.049Z,99118.23
2022-10-16T04:01:58.128Z,99127.59
2022-10-16T04:05:15.423Z,99125.47
2022-10-16T04:08:31.527Z,99126.86
2022-10-16T04:11:50.642Z,99135.53
2022-10-16T04:15:07.816Z,99130.59
2022-10-16T04:18:23.970Z,99133.97
2022-10-16T04:21:40.087Z,99136.16
2022-10-16T04:24:56.133Z,99136.51
2022-10-16T04:28:12.155Z,99134.69
2022-10-16T04:31:28.372Z,99140.82
2022-10-16T04:34:45.613Z,99137.51
2022-10-16T04:38:03.491Z,99135.04
2022-10-16T04:41:19.586Z,99136.89
2022-10-16T04:44:35.606Z,99135.04
2022-10-16T04:47:51.655Z,99132.76
2022-10-16T04:51:07.789Z,99135.10
2022-10-16T04:54:23.978Z,99139.60
2022-10-16T04:57:40.540Z,99145.83
2022-10-16T05:00:56.682Z,99145.53
2022-10-16T05:04:12.706Z,99149.72
2022-10-16T05:07:30.960Z,99149.25
2022-10-16T05:10:47.376Z,99146.97
2022-10-16T05:14:04.837Z,99149.14
2022-10-16T05:17:21.363Z,99143.36
2022-10-16T05:20:37.449Z,99148.02
2022-10-16T05:23:53.464Z,99139.58
2022-10-16T05:27:09.553Z,99151.23
2022-10-16T05:30:25.977Z,99156.69
2022-10-16T05:33:42.180Z,99158.34
2022-10-16T05:36:59.680Z,99159.01
2022-10-16T05:40:18.488Z,99176.59
2022-10-16T05:43:35.643Z,99167.27
2022-10-16T05:46:52.444Z,99169.39
2022-10-16T05:50:08.542Z,99172.52
2022-10-16T05:53:26.474Z,99173.28
2022-10-16T05:56:42.813Z,99170.26
2022-10-16T05:59:58.761Z,99167.89
2022-10-16T06:03:15.040Z,99171.67
2022-10-16T06:06:38.002Z,99167.83
2022-10-16T06:09:56.323Z,99175.90
2022-10-16T06:13:12.352Z,99182.16
2022-10-16T06:16:29.049Z,99188.41
2022-10-16T06:19:45.020Z,99196.97
2022-10-16T06:23:01.047Z,99203.69
2022-10-16T06:26:20.157Z,99207.75
2022-10-16T06:29:36.213Z,99209.77
2022-10-16T06:32:52.291Z,99220.87
2022-10-16T06:36:14.774Z,99226.91
2022-10-16T06:39:30.975Z,99223.75
2022-10-16T06:42:47.200Z,99230.56
2022-10-16T06:46:05.977Z,99240.84
2022-10-16T06:49:24.148Z,99243.14
2022-10-16T06:52:41.818Z,99249.20
2022-10-16T06:56:00.100Z,99262.25
2022-10-16T06:59:16.806Z,99272.17
2022-10-16T07:02:32.834Z,99267.59
2022-10-16T07:05:50.728Z,99266.16
2022-10-16T07:09:07.231Z,99264.55
2022-10-16T07:12:26.039Z,99267.64
2022-10-16T07:15:42.502Z,99270.98
2022-10-16T07:19:00.957Z,99275.14
2022-10-16T07:22:17.414Z,99273.30
2022-10-16T07:25:33.725Z,99276.56
2022-10-16T07:28:51.176Z,99275.34
2022-10-16T07:32:07.917Z,99286.04
2022-10-16T07:35:24.264Z,99288.31
2022-10-16T07:38:40.613Z,99281.91
2022-10-16T07:41:56.818Z,99287.05
2022-10-16T07:45:15.014Z,99286.62
2022-10-16T07:48:33.393Z,99290.12
2022-10-16T07:51:49.610Z,99283.33
2022-10-16T07:55:06.094Z,99286.41
2022-10-16T07:58:22.277Z,99289.50
2022-10-16T08:01:44.331Z,99301.23
2022-10-16T08:05:01.148Z,99303.91
2022-10-16T08:08:20.350Z,99299.37
2022-10-16T08:11:36.786Z,99302.45
2022-10-16T08:14:54.217Z,99308.22
2022-10-16T08:18:12.803Z,99308.41
2022-10-16T08:21:31.255Z,99314.39
2022-10-16T08:24:47.288Z,99312.93
2022-10-16T08:28:05.091Z,99320.96
2022-10-16T08:31:23.432Z,99316.42
2022-10-16T08:34:40.258Z,99322.00
2022-10-16T08:37:56.473Z,99321.59
2022-10-16T08:41:27.897Z,99325.30
2022-10-16T08:45:15.684Z,99326.92
2022-10-16T08:48:36.387Z,99328.75
2022-10-16T08:51:52.939Z,99334.92
2022-10-16T08:55:13.205Z,99333.63
2022-10-16T08:58:32.953Z,99338.54
2022-10-16T09:01:53.641Z,99335.77
2022-10-16T09:05:36.176Z,99339.18
2022-10-16T09:09:08.862Z,99328.56
2022-10-16T09:12:29.860Z,99334.72
2022-10-16T09:15:52.733Z,99339.61
2022-10-16T09:19:14.788Z,99345.95
2022-10-16T09:22:34.936Z,99340.16
2022-10-16T09:25:55.196Z,99344.86
2022-10-16T09:29:11.627Z,99347.05
2022-10-16T09:32:30.330Z,99348.44
2022-10-16T09:35:51.293Z,99351.22
2022-10-16T09:39:17.801Z,99354.39
2022-10-16T09:42:41.538Z,99364.79
2022-10-16T09:46:07.611Z,99364.46
2022-10-16T09:49:33.438Z,99369.47
2022-10-16T09:52:49.837Z,99368.48
2022-10-16T09:56:11.725Z,99366.82
2022-10-16T09:59:31.837Z,99368.08
2022-10-16T10:02:48.992Z,99375.73
2022-10-16T10:06:08.231Z,99378.06
2022-10-16T10:09:32.658Z,99382.77
2022-10-16T10:12:50.727Z,99375.98
2022-10-16T10:16:10.007Z,99372.68
2022-10-16T10:19:32.747Z,99372.58
2022-10-16T10:22:53.959Z,99375.50
2022-10-16T10:26:14.256Z,99378.43
2022-10-16T10:29:47.039Z,99372.17
2022-10-16T10:33:15.844Z,99369.73
2022-10-16T10:36:41.210Z,99368.02
2022-10-16T10:40:03.261Z,99373.52
2022-10-16T10:43:28.831Z,99369.78
2022-10-16T10:46:48.765Z,99362.20
2022-10-16T10:50:13.130Z,99357.63
2022-10-16T10:53:44.349Z,99353.28
2022-10-16T10:57:06.846Z,99356.34
2022-10-16T11:00:30.119Z,99352.59
2022-10-16T11:04:15.659Z,99350.14
2022-10-16T11:07:37.924Z,99357.30
2022-10-16T11:11:00.463Z,99359.88
2022-10-16T11:14:23.505Z,99342.55
2022-10-16T11:17:45.278Z,99353.23
2022-10-16T11:21:06.590Z,99351.09
2022-10-16T11:24:27.789Z,99347.36
2022-10-16T11:27:50.706Z,99342.92
2022-10-16T11:31:12.113Z,99349.12
2022-10-16T11:34:35.533Z,99348.07
2022-10-16T11:38:00.611Z,99350.41
2022-10-16T11:41:25.024Z,99357.89
2022-10-16T11:44:57.181Z,99354.15
2022-10-16T11:48:18.832Z,99350.64
2022-10-16T11:51:40.438Z,99351.09
2022-10-16T11:55:00.927Z,99340.56
2022-10-16T11:58:22.365Z,99343.73
2022-10-16T12:01:47.293Z,99349.81
2022-10-16T12:05:08.435Z,99350.27
2022-10-16T12:08:25.674Z,99352.84
2022-10-16T12:11:49.362Z,99355.17
2022-10-16T12:18:51.691Z,99347.45
2022-10-16T12:22:09.820Z,99353.52
2022-10-16T12:25:36.467Z,99356.69
2022-10-16T12:28:53.476Z,99359.23
2022-10-16T12:32:19.289Z,99360.30
2022-10-16T12:35:33.859Z,99354.67
2022-10-16T12:38:57.226Z,99361.23
2022-10-16T12:42:28.412Z,99353.28
2022-10-16T12:45:47.318Z,99363.37
2022-10-16T12:49:13.615Z,99353.77
2022-10-16T12:52:45.103Z,99363.84
2022-10-16T12:56:11.981Z,99367.95
2022-10-16T12:59:38.012Z,99367.71
2022-10-16T13:03:37.404Z,99362.80
2022-10-16T13:06:59.960Z,99364.66
2022-10-16T13:10:28.183Z,99368.43
2022-10-16T13:14:14.706Z,99373.22
2022-10-16T13:17:36.017Z,99379.65
2022-10-16T13:21:06.562Z,99383.86
2022-10-16T13:24:32.961Z,99391.10
2022-10-16T13:27:54.904Z,99395.08
2022-10-16T13:31:14.150Z,99390.98
2022-10-16T13:34:32.512Z,99401.98
2022-10-16T13:37:48.648Z,99399.97
2022-10-16T13:41:07.775Z,99400.89
2022-10-16T13:44:27.996Z,99402.41
2022-10-16T13:47:44.543Z,99403.21
2022-10-16T13:51:15.085Z,99401.59
2022-10-16T13:54:34.805Z,99401.80
2022-10-16T13:57:52.876Z,99416.34
2022-10-16T14:01:11.843Z,99412.44
2022-10-16T14:04:26.005Z,99418.29
2022-10-16T14:07:43.866Z,99417.69
2022-10-16T14:11:02.735Z,99418.97
2022-10-16T14:14:23.171Z,99417.52
2022-10-16T14:17:42.146Z,99418.19
2022-10-16T14:21:01.759Z,99420.14
2022-10-16T14:24:34.128Z,99415.23
2022-10-16T14:27:50.560Z,99412.77
2022-10-16T14:31:09.292Z,99421.04
2022-10-16T14:34:38.490Z,99416.94
2022-10-16T14:37:56.612Z,99419.48
2022-10-16T14:41:17.280Z,99416.22
2022-10-16T14:44:38.839Z,99410.67
2022-10-16T14:48:02.926Z,99409.34
2022-10-16T14:51:24.092Z,99407.78
2022-10-16T14:54:40.315Z,99403.67
2022-10-16T14:57:59.780Z,99397.77
2022-10-16T15:01:16.218Z,99393.14
2022-10-16T15:04:33.789Z,99393.80
2022-10-16T15:07:50.872Z,99402.90
2022-10-16T15:11:07.060Z,99416.34
2022-10-16T15:14:24.216Z,99418.30
2022-10-16T15:17:40.588Z,99416.34
2022-10-16T15:20:59.245Z,99417.88
2022-10-16T15:24:21.718Z,99425.39
2022-10-16T15:27:39.691Z,99427.06
2022-10-16T15:30:58.589Z,99425.56
2022-10-16T15:34:14.783Z,99430.25
2022-10-16T15:37:30.764Z,99431.97
2022-10-16T15:40:47.544Z,99441.26
2022-10-16T15:44:03.779Z,99442.14
2022-10-16T15:47:20.112Z,99441.79
2022-10-16T15:50:37.796Z,99447.01
2022-10-16T15:53:54.752Z,99449.13
2022-10-16T15:57:11.275Z,99448.52
2022-10-16T16:00:28.918Z,99446.28
2022-10-16T16:03:49.464Z,99449.55
2022-10-16T16:07:07.759Z,99453.67
2022-10-16T16:10:24.915Z,99452.63
2022-10-16T16:13:41.826Z,99444.39
2022-10-16T16:16:59.173Z,99435.54
2022-10-16T16:20:18.327Z,99440.47
2022-10-16T16:23:32.447Z,99439.45
2022-10-16T16:26:49.743Z,99454.91
2022-10-16T16:30:09.728Z,99455.33
2022-10-16T16:33:26.661Z,99463.56
2022-10-16T16:36:43.614Z,99476.34
2022-10-16T16:40:04.403Z,99466.87
2022-10-16T16:43:21.826Z,99480.88
2022-10-16T16:46:38.742Z,99479.41
2022-10-16T16:49:54.869Z,99493.02
2022-10-16T16:53:11.414Z,99485.81
2022-10-16T16:56:28.504Z,99505.80
2022-10-16T16:59:44.990Z,99502.91
2022-10-16T17:03:01.391Z,99499.20
2022-10-16T17:06:21.065Z,99511.78
2022-10-16T17:09:38.120Z,99512.38
2022-10-16T17:16:10.576Z,99522.28
2022-10-16T17:19:28.804Z,99530.73
2022-10-16T17:22:42.657Z,99534.03
2022-10-16T17:26:00.603Z,99528.45
2022-10-16T17:29:19.677Z,99533.81
2022-10-16T17:32:33.694Z,99533.61
2022-10-16T17:35:55.478Z,99538.33
2022-10-16T17:39:18.416Z,99551.52
2022-10-16T17:42:34.519Z,99549.89
2022-10-16T17:45:50.636Z,99550.28
2022-10-16T17:49:07.397Z,99557.67
2022-10-16T17:52:25.215Z,99556.02
2022-10-16T17:55:45.097Z,99563.63
2022-10-16T17:59:04.876Z,99551.08
2022-10-16T18:02:21.414Z,99556.01
2022-10-16T18:05:38.222Z,99567.31
2022-10-16T18:08:54.548Z,99561.96
2022-10-16T18:12:11.622Z,99571.81
2022-10-16T18:15:33.523Z,99576.95
2022-10-16T18:18:52.280Z,99576.14
2022-10-16T18:22:08.921Z,99579.03
2022-10-16T18:25:25.328Z,99586.22
2022-10-16T18:28:44.755Z,99583.75
2022-10-16T18:32:01.571Z,99586.63
2022-10-16T18:35:18.503Z,99600.02
2022-10-16T18:38:34.811Z,99610.08
2022-10-16T18:41:54.654Z,99603.84
2022-10-16T18:45:12.132Z,99612.00
2022-10-16T18:48:28.353Z,99612.14
2022-10-16T18:51:48.242Z,99618.63
2022-10-16T18:55:07.366Z,99624.20
2022-10-16T18:58:24.845Z,99624.24
2022-10-16T19:01:44.478Z,99636.58
2022-10-16T19:05:03.877Z,99643.18
2022-10-16T19:08:20.315Z,99648.82
2022-10-16T19:11:41.382Z,99651.59
2022-10-16T19:14:57.703Z,99651.05
2022-10-16T19:18:14.323Z,99645.64
2022-10-16T19:21:32.420Z,99658.08
2022-10-16T19:24:49.351Z,99652.44
2022-10-16T19:28:07.437Z,99666.46
2022-10-16T19:31:28.751Z,99666.47
2022-10-16T19:34:42.806Z,99669.22
2022-10-16T19:38:01.138Z,99676.76
2022-10-16T19:41:21.669Z,99674.83
2022-10-16T19:44:38.092Z,99672.34
2022-10-16T19:47:55.615Z,99673.70
2022-10-16T19:51:12.236Z,99673.08
2022-10-16T19:54:28.500Z,99673.35
2022-10-16T19:57:46.142Z,99674.83
2022-10-16T20:01:02.569Z,99674.91
2022-10-16T20:04:19.651Z,99679.23
2022-10-16T20:07:36.097Z,99681.36
2022-10-16T20:11:02.495Z,99688.55
2022-10-16T20:14:19.288Z,99674.63
2022-10-16T20:17:40.182Z,99682.53
2022-10-16T20:20:58.502Z,99687.41
2022-10-16T20:24:16.337Z,99687.94
2022-10-16T20:27:32.807Z,99693.52
2022-10-16T20:30:55.308Z,99708.13
2022-10-16T20:34:17.455Z,99713.17
2022-10-16T20:37:33.768Z,99718.84
2022-10-16T20:40:52.012Z,99718.89
2022-10-16T20:44:09.798Z,99721.83
2022-10-16T20:47:28.398Z,99731.02
2022-10-16T20:50:45.301Z,99730.05
2022-10-16T20:54:08.765Z,99734.59
2022-10-16T20:57:25.021Z,99733.00
2022-10-16T21:00:41.473Z,99731.36
2022-10-16T21:04:02.999Z,99735.20
2022-10-16T21:07:21.405Z,99735.08
2022-10-16T21:10:41.767Z,99732.93
2022-10-16T21:13:59.364Z,99734.92
2022-10-16T21:17:18.709Z,99742.42
2022-10-16T21:20:33.469Z,99752.38
2022-10-16T21:23:49.395Z,99750.90
2022-10-16T21:27:05.617Z,99747.42
2022-10-16T21:30:26.228Z,99751.44
2022-10-16T21:33:39.896Z,99756.42
2022-10-16T21:36:55.687Z,99751.45
2022-10-16T21:40:13.258Z,99767.92
2022-10-16T21:43:29.743Z,99762.78
2022-10-16T21:46:47.912Z,99764.77
2022-10-16T21:50:03.941Z,99766.94
2022-10-16T21:53:21.520Z,99771.77
2022-10-16T21:56:38.899Z,99781.23
2022-10-16T21:59:56.871Z,99784.58
2022-10-16T22:03:13.106Z,99785.43
2022-10-16T22:06:34.078Z,99787.77
2022-10-16T22:09:48.014Z,99783.13
2022-10-16T22:13:03.919Z,99782.45
2022-10-16T22:16:20.743Z,99782.41
2022-10-16T22:19:36.737Z,99782.58
2022-10-16T22:22:53.740Z,99795.88
2022-10-16T22:26:14.129Z,99792.56
2022-10-16T22:29:30.507Z,99796.25
2022-10-16T22:32:46.505Z,99795.26
2022-10-16T22:36:03.176Z,99799.09
2022-10-16T22:39:19.505Z,99798.23
2022-10-16T22:42:37.123Z,99797.39
2022-10-16T22:45:53.089Z,99809.05
2022-10-16T22:49:14.567Z,99809.38
2022-10-16T22:52:30.864Z,99805.75
2022-10-16T22:55:47.062Z,99811.56
2022-10-16T22:59:02.997Z,99807.25
2022-10-16T23:02:19.652Z,99816.56
2022-10-16T23:05:35.934Z,99809.58
2022-10-16T23:08:52.227Z,99803.11
2022-10-16T23:12:09.015Z,99809.55
2022-10-16T23:15:25.535Z,99810.69
2022-10-16T23:18:41.962Z,99811.20
2022-10-16T23:21:57.980Z,99813.67
2022-10-16T23:25:16.368Z,99812.52
2022-10-16T23:28:33.741Z,99817.32
2022-10-16T23:31:49.815Z,99815.01
2022-10-16T23:35:05.785Z,99817.33
2022-10-16T23:38:21.872Z,99825.78
2022-10-16T23:41:40.150Z,99829.77
2022-10-16T23:44:56.119Z,99832.91
2022-10-16T23:48:13.028Z,99832.56
2022-10-16T23:51:29.486Z,99823.27
2022-10-16T23:54:46.860Z,99830.72
2022-10-16T23:58:03.096Z,99838.83
